createdAt,value
2023-11-19T00:06:39.357Z,4.82
2023-11-19T00:16:42.288Z,4.65
2023-11-19T00:26:47.146Z,4.45
2023-11-19T00:36:51.067Z,4.40
2023-11-19T00:47:00.945Z,3.88
2023-11-19T00:57:04.824Z,3.65
2023-11-19T01:07:13.623Z,4.40
2023-11-19T01:17:17.390Z,5.10
2023-11-19T01:27:22.746Z,5.20
2023-11-19T01:37:25.655Z,5.05
2023-11-19T01:47:30.805Z,5.10
2023-11-19T01:57:33.782Z,5.60
2023-11-19T02:07:37.970Z,6.55
2023-11-19T02:17:40.954Z,8.70
2023-11-19T02:27:50.632Z,8.25
2023-11-19T02:37:53.434Z,7.88
2023-11-19T02:47:57.613Z,7.68
2023-11-19T02:58:01.233Z,7.15
2023-11-19T03:08:05.746Z,7.10
2023-11-19T03:18:08.595Z,7.30
2023-11-19T03:28:13.301Z,6.15
2023-11-19T03:38:16.616Z,5.95
2023-11-19T03:48:20.944Z,5.57
2023-11-19T03:58:23.775Z,5.65
2023-11-19T04:08:27.939Z,6.18
2023-11-19T04:18:30.868Z,4.95
2023-11-19T04:28:35.332Z,4.78
2023-11-19T04:38:39.540Z,5.68
2023-11-19T04:48:43.693Z,6.00
2023-11-19T04:58:46.480Z,5.43
2023-11-19T05:08:50.623Z,4.00
2023-11-19T05:18:53.396Z,4.80
2023-11-19T05:28:57.564Z,4.50
2023-11-19T05:39:00.466Z,4.97
2023-11-19T05:49:05.594Z,4.93
2023-11-19T05:59:15.894Z,3.50
2023-11-19T06:09:20.520Z,3.08
2023-11-19T06:19:27.264Z,3.17
2023-11-19T06:29:32.662Z,2.63
2023-11-19T06:39:36.402Z,3.28
2023-11-19T06:49:40.539Z,3.80
2023-11-19T06:59:44.006Z,3.20
2023-11-19T07:09:48.996Z,2.53
2023-11-19T07:19:52.117Z,3.63
2023-11-19T07:29:56.365Z,3.03
2023-11-19T07:39:59.223Z,3.72
2023-11-19T07:50:03.652Z,3.67
2023-11-19T08:00:08.247Z,3.65
2023-11-19T08:10:17.096Z,3.50
2023-11-19T08:20:19.940Z,5.15
2023-11-19T08:30:24.134Z,3.33
2023-11-19T08:40:27.208Z,3.03
2023-11-19T08:50:31.436Z,2.78
2023-11-19T09:00:34.371Z,2.92
2023-11-19T09:10:38.499Z,2.60
2023-11-19T09:20:41.333Z,3.15
2023-11-19T09:30:45.663Z,2.80
2023-11-19T09:40:48.747Z,2.50
2023-11-19T09:50:54.137Z,2.92
2023-11-19T10:01:23.527Z,2.88
2023-11-19T10:11:23.528Z,2.35
2023-11-19T10:21:28.786Z,2.33
2023-11-19T10:31:33.032Z,2.97
2023-11-19T10:41:36.064Z,2.63
2023-11-19T10:51:45.778Z,2.03
2023-11-19T11:01:50.487Z,2.60
2023-11-19T11:11:54.900Z,1.80
2023-11-19T11:21:58.595Z,2.88
2023-11-19T11:32:11.148Z,7.75
2023-11-19T11:42:33.592Z,2.47
2023-11-19T11:53:16.305Z,2.42
2023-11-19T12:03:22.768Z,1.88
2023-11-19T12:13:32.089Z,4.07
2023-11-19T12:23:35.212Z,2.30
2023-11-19T12:33:39.902Z,2.30
2023-11-19T12:53:54.010Z,2.75
2023-11-19T13:03:56.839Z,2.40
2023-11-19T13:14:04.146Z,2.10
2023-11-19T13:24:07.560Z,4.50
2023-11-19T13:34:11.897Z,1.67
2023-11-19T13:44:14.832Z,2.35
2023-11-19T13:54:20.653Z,2.45
2023-11-19T14:04:23.674Z,2.08
2023-11-19T14:14:27.908Z,2.70
2023-11-19T14:24:30.821Z,2.88
2023-11-19T14:34:35.030Z,2.88
2023-11-19T14:44:37.892Z,3.40
2023-11-19T14:54:42.320Z,2.53
2023-11-19T15:04:46.580Z,2.70
2023-11-19T15:14:50.874Z,2.28
2023-11-19T15:24:53.871Z,2.75
2023-11-19T15:34:58.128Z,2.30
2023-11-19T15:45:00.997Z,2.45
2023-11-19T15:55:05.801Z,2.10
2023-11-19T16:05:12.051Z,2.40
2023-11-19T16:15:36.598Z,1.88
2023-11-19T16:25:40.277Z,1.90
2023-11-19T16:35:44.540Z,2.75
2023-11-19T16:45:47.505Z,1.90
2023-11-19T16:55:51.749Z,2.03
2023-11-19T17:05:54.859Z,3.05
2023-11-19T17:15:59.376Z,3.05
2023-11-19T17:26:02.758Z,5.07
2023-11-19T17:36:08.203Z,2.55
2023-11-19T17:46:11.224Z,2.70
2023-11-19T17:56:15.764Z,3.03
2023-11-19T18:06:19.440Z,2.38
2023-11-19T18:16:24.782Z,2.58
2023-11-19T18:26:44.662Z,2.75
2023-11-19T18:36:49.373Z,2.90
2023-11-19T18:46:52.500Z,2.22
2023-11-19T18:56:58.267Z,2.67
2023-11-19T19:07:02.816Z,2.78
2023-11-19T19:17:09.204Z,2.63
2023-11-19T19:27:12.183Z,1.77
2023-11-19T19:37:16.526Z,2.33
2023-11-19T19:47:20.104Z,2.40
2023-11-19T19:57:24.485Z,2.88
2023-11-19T20:07:27.433Z,2.72
2023-11-19T20:17:31.824Z,2.92
2023-11-19T20:27:34.979Z,2.50
2023-11-19T20:37:39.358Z,3.50
2023-11-19T20:47:42.897Z,3.08
2023-11-19T20:57:47.296Z,3.30
2023-11-19T21:07:50.490Z,2.95
2023-11-19T21:17:54.908Z,2.13
2023-11-19T21:27:57.866Z,2.70
2023-11-19T21:38:02.109Z,3.33
2023-11-19T21:48:05.319Z,2.97
2023-11-19T21:58:09.504Z,3.60
2023-11-19T22:08:18.561Z,3.35
2023-11-19T22:23:36.130Z,3.55
2023-11-19T22:33:39.548Z,3.80
2023-11-19T22:43:44.726Z,4.07
2023-11-19T22:53:47.506Z,3.00
2023-11-19T23:03:51.709Z,3.75
2023-11-19T23:13:54.542Z,4.00
2023-11-19T23:23:58.789Z,4.18
2023-11-19T23:34:02.268Z,3.45
2023-11-19T23:44:07.021Z,3.63
2023-11-19T23:54:10.027Z,3.70
